sensor_id;sensor_type;location;lat;lon;timestamp;P1;durP1;ratioP1;P2;durP2;ratioP2
10410;SDS011;5251;52.112;8.606;2022-09-20T00:03:30;7.35;;;1.65;;
10410;SDS011;5251;52.112;8.606;2022-09-20T00:05:58;7.05;;;1.70;;
10410;SDS011;5251;52.112;8.606;2022-09-20T00:08:25;5.35;;;1.50;;
10410;SDS011;5251;52.112;8.606;2022-09-20T00:10:51;3.85;;;1.67;;
10410;SDS011;5251;52.112;8.606;2022-09-20T00:13:21;5.97;;;1.80;;
10410;SDS011;5251;52.112;8.606;2022-09-20T00:15:47;6.38;;;1.60;;
10410;SDS011;5251;52.112;8.606;2022-09-20T00:18:12;5.97;;;1.42;;
10410;SDS011;5251;52.112;8.606;2022-09-20T00:20:45;7.97;;;1.80;;
10410;SDS011;5251;52.112;8.606;2022-09-20T00:23:11;5.95;;;1.60;;
10410;SDS011;5251;52.112;8.606;2022-09-20T00:25:37;6.68;;;2.10;;
10410;SDS011;5251;52.112;8.606;2022-09-20T00:28:03;7.00;;;1.60;;
10410;SDS011;5251;52.112;8.606;2022-09-20T00:30:29;7.50;;;2.40;;
10410;SDS011;5251;52.112;8.606;2022-09-20T00:32:56;5.22;;;1.60;;
10410;SDS011;5251;52.112;8.606;2022-09-20T00:35:22;5.85;;;1.70;;
10410;SDS011;5251;52.112;8.606;2022-09-20T00:37:47;6.20;;;1.90;;
10410;SDS011;5251;52.112;8.606;2022-09-20T00:40:14;4.82;;;1.58;;
10410;SDS011;5251;52.112;8.606;2022-09-20T00:42:44;4.95;;;1.50;;
10410;SDS011;5251;52.112;8.606;2022-09-20T00:45:28;6.45;;;1.60;;
10410;SDS011;5251;52.112;8.606;2022-09-20T00:47:56;6.40;;;1.90;;
10410;SDS011;5251;52.112;8.606;2022-09-20T00:50:42;5.30;;;1.80;;
10410;SDS011;5251;52.112;8.606;2022-09-20T00:58:26;4.60;;;1.60;;
10410;SDS011;5251;52.112;8.606;2022-09-20T01:00:55;4.97;;;1.67;;
10410;SDS011;5251;52.112;8.606;2022-09-20T01:03:23;5.18;;;1.73;;
10410;SDS011;5251;52.112;8.606;2022-09-20T01:05:52;6.38;;;1.98;;
10410;SDS011;5251;52.112;8.606;2022-09-20T01:08:19;6.32;;;1.90;;
10410;SDS011;5251;52.112;8.606;2022-09-20T01:10:48;4.40;;;1.60;;
10410;SDS011;5251;52.112;8.606;2022-09-20T01:13:14;6.93;;;1.60;;
10410;SDS011;5251;52.112;8.606;2022-09-20T01:15:40;5.38;;;1.58;;
10410;SDS011;5251;52.112;8.606;2022-09-20T01:18:07;5.75;;;1.83;;
10410;SDS011;5251;52.112;8.606;2022-09-20T01:20:34;6.07;;;1.40;;
10410;SDS011;5251;52.112;8.606;2022-09-20T01:23:10;6.28;;;1.70;;
10410;SDS011;5251;52.112;8.606;2022-09-20T01:28:26;8.77;;;2.15;;
10410;SDS011;5251;52.112;8.606;2022-09-20T01:33:51;6.63;;;1.80;;
10410;SDS011;5251;52.112;8.606;2022-09-20T01:36:18;4.60;;;1.67;;
10410;SDS011;5251;52.112;8.606;2022-09-20T01:41:37;3.95;;;1.60;;
10410;SDS011;5251;52.112;8.606;2022-09-20T01:46:53;8.57;;;1.92;;
10410;SDS011;5251;52.112;8.606;2022-09-20T01:57:37;6.20;;;1.55;;
10410;SDS011;5251;52.112;8.606;2022-09-20T02:00:17;6.40;;;1.58;;
10410;SDS011;5251;52.112;8.606;2022-09-20T02:08:07;5.47;;;1.63;;
10410;SDS011;5251;52.112;8.606;2022-09-20T02:21:39;3.83;;;1.80;;
10410;SDS011;5251;52.112;8.606;2022-09-20T02:24:28;6.50;;;1.40;;
10410;SDS011;5251;52.112;8.606;2022-09-20T02:44:20;5.18;;;1.60;;
10410;SDS011;5251;52.112;8.606;2022-09-20T02:58:43;5.20;;;1.63;;
10410;SDS011;5251;52.112;8.606;2022-09-20T03:03:58;8.00;;;1.58;;
10410;SDS011;5251;52.112;8.606;2022-09-20T03:06:50;2.90;;;1.20;;
10410;SDS011;5251;52.112;8.606;2022-09-20T03:14:25;6.43;;;1.45;;
10410;SDS011;5251;52.112;8.606;2022-09-20T03:19:51;7.38;;;1.63;;
10410;SDS011;5251;52.112;8.606;2022-09-20T03:30:26;3.67;;;1.42;;
10410;SDS011;5251;52.112;8.606;2022-09-20T03:33:26;4.47;;;1.40;;
10410;SDS011;5251;52.112;8.606;2022-09-20T03:46:54;6.20;;;1.40;;
10410;SDS011;5251;52.112;8.606;2022-09-20T03:58:05;4.03;;;1.25;;
10410;SDS011;5251;52.112;8.606;2022-09-20T04:01:08;4.40;;;1.42;;
10410;SDS011;5251;52.112;8.606;2022-09-20T04:04:05;5.63;;;1.55;;
10410;SDS011;5251;52.112;8.606;2022-09-20T04:09:24;5.93;;;1.75;;
10410;SDS011;5251;52.112;8.606;2022-09-20T04:11:55;6.82;;;1.77;;
10410;SDS011;5251;52.112;8.606;2022-09-20T04:14:46;5.80;;;1.40;;
10410;SDS011;5251;52.112;8.606;2022-09-20T04:22:45;4.60;;;1.65;;
10410;SDS011;5251;52.112;8.606;2022-09-20T04:25:19;6.15;;;1.25;;
10410;SDS011;5251;52.112;8.606;2022-09-20T04:28:03;6.25;;;1.63;;
10410;SDS011;5251;52.112;8.606;2022-09-20T04:30:34;4.28;;;1.50;;
10410;SDS011;5251;52.112;8.606;2022-09-20T04:38:45;5.68;;;1.45;;
10410;SDS011;5251;52.112;8.606;2022-09-20T05:00:41;5.10;;;1.52;;
10410;SDS011;5251;52.112;8.606;2022-09-20T05:17:05;6.20;;;2.03;;
10410;SDS011;5251;52.112;8.606;2022-09-20T05:28:54;5.10;;;1.85;;
10410;SDS011;5251;52.112;8.606;2022-09-20T05:31:15;4.57;;;2.00;;
10410;SDS011;5251;52.112;8.606;2022-09-20T05:44:58;5.63;;;2.15;;
10410;SDS011;5251;52.112;8.606;2022-09-20T05:56:17;6.63;;;2.17;;
10410;SDS011;5251;52.112;8.606;2022-09-20T05:58:48;4.97;;;1.80;;
10410;SDS011;5251;52.112;8.606;2022-09-20T06:01:54;5.97;;;2.35;;
10410;SDS011;5251;52.112;8.606;2022-09-20T06:04:41;7.30;;;2.20;;
10410;SDS011;5251;52.112;8.606;2022-09-20T06:13:37;7.60;;;2.10;;
10410;SDS011;5251;52.112;8.606;2022-09-20T06:16:16;4.03;;;2.28;;
10410;SDS011;5251;52.112;8.606;2022-09-20T06:19:03;4.60;;;2.30;;
10410;SDS011;5251;52.112;8.606;2022-09-20T06:24:34;6.63;;;2.55;;
10410;SDS011;5251;52.112;8.606;2022-09-20T06:27:25;7.18;;;2.83;;
10410;SDS011;5251;52.112;8.606;2022-09-20T06:29:59;6.15;;;2.47;;
10410;SDS011;5251;52.112;8.606;2022-09-20T06:32:29;4.68;;;2.28;;
10410;SDS011;5251;52.112;8.606;2022-09-20T06:34:56;7.18;;;2.00;;
10410;SDS011;5251;52.112;8.606;2022-09-20T06:37:37;8.18;;;2.38;;
10410;SDS011;5251;52.112;8.606;2022-09-20T06:40:44;7.72;;;2.10;;
10410;SDS011;5251;52.112;8.606;2022-09-20T06:43:30;4.68;;;2.25;;
10410;SDS011;5251;52.112;8.606;2022-09-20T06:45:56;7.63;;;2.78;;
10410;SDS011;5251;52.112;8.606;2022-09-20T06:48:22;7.18;;;2.53;;
10410;SDS011;5251;52.112;8.606;2022-09-20T06:50:49;7.50;;;2.30;;
10410;SDS011;5251;52.112;8.606;2022-09-20T06:53:23;7.88;;;2.30;;
10410;SDS011;5251;52.112;8.606;2022-09-20T06:55:52;6.03;;;2.05;;
10410;SDS011;5251;52.112;8.606;2022-09-20T06:58:18;6.18;;;2.45;;
10410;SDS011;5251;52.112;8.606;2022-09-20T07:00:44;4.45;;;1.90;;
10410;SDS011;5251;52.112;8.606;2022-09-20T07:03:10;6.20;;;2.20;;
10410;SDS011;5251;52.112;8.606;2022-09-20T07:05:37;5.22;;;2.42;;
10410;SDS011;5251;52.112;8.606;2022-09-20T07:08:03;4.05;;;2.22;;
10410;SDS011;5251;52.112;8.606;2022-09-20T07:10:29;6.32;;;2.13;;
10410;SDS011;5251;52.112;8.606;2022-09-20T07:12:58;5.30;;;1.90;;
10410;SDS011;5251;52.112;8.606;2022-09-20T07:15:32;7.13;;;2.08;;
10410;SDS011;5251;52.112;8.606;2022-09-20T07:17:58;5.50;;;2.13;;
10410;SDS011;5251;52.112;8.606;2022-09-20T07:20:24;5.82;;;2.53;;
10410;SDS011;5251;52.112;8.606;2022-09-20T07:22:50;4.65;;;1.98;;
10410;SDS011;5251;52.112;8.606;2022-09-20T07:25:17;6.50;;;1.80;;
10410;SDS011;5251;52.112;8.606;2022-09-20T07:27:44;4.88;;;1.83;;
10410;SDS011;5251;52.112;8.606;2022-09-20T07:30:11;5.53;;;1.90;;
10410;SDS011;5251;52.112;8.606;2022-09-20T07:32:38;7.68;;;2.05;;
10410;SDS011;5251;52.112;8.606;2022-09-20T07:35:06;3.53;;;1.75;;
10410;SDS011;5251;52.112;8.606;2022-09-20T07:37:35;6.82;;;2.00;;
10410;SDS011;5251;52.112;8.606;2022-09-20T07:40:01;5.18;;;1.83;;
10410;SDS011;5251;52.112;8.606;2022-09-20T07:42:29;4.55;;;1.77;;
10410;SDS011;5251;52.112;8.606;2022-09-20T07:44:54;4.72;;;1.80;;
10410;SDS011;5251;52.112;8.606;2022-09-20T07:47:20;5.72;;;1.90;;
10410;SDS011;5251;52.112;8.606;2022-09-20T07:49:49;4.40;;;1.88;;
10410;SDS011;5251;52.112;8.606;2022-09-20T07:52:15;2.90;;;1.70;;
10410;SDS011;5251;52.112;8.606;2022-09-20T07:54:41;6.43;;;1.65;;
10410;SDS011;5251;52.112;8.606;2022-09-20T07:57:06;4.28;;;1.95;;
10410;SDS011;5251;52.112;8.606;2022-09-20T07:59:32;6.10;;;1.80;;
10410;SDS011;5251;52.112;8.606;2022-09-20T08:01:58;6.13;;;1.73;;
10410;SDS011;5251;52.112;8.606;2022-09-20T08:04:24;5.68;;;1.70;;
10410;SDS011;5251;52.112;8.606;2022-09-20T08:06:50;5.70;;;1.70;;
10410;SDS011;5251;52.112;8.606;2022-09-20T08:09:16;6.60;;;1.80;;
10410;SDS011;5251;52.112;8.606;2022-09-20T08:11:42;3.70;;;1.60;;
10410;SDS011;5251;52.112;8.606;2022-09-20T08:14:08;5.82;;;2.05;;
10410;SDS011;5251;52.112;8.606;2022-09-20T08:16:39;5.20;;;1.90;;
10410;SDS011;5251;52.112;8.606;2022-09-20T08:19:06;7.35;;;2.00;;
10410;SDS011;5251;52.112;8.606;2022-09-20T08:21:33;4.68;;;2.05;;
10410;SDS011;5251;52.112;8.606;2022-09-20T08:23:59;5.05;;;1.75;;
10410;SDS011;5251;52.112;8.606;2022-09-20T08:26:28;3.33;;;1.65;;
10410;SDS011;5251;52.112;8.606;2022-09-20T08:28:56;4.15;;;1.70;;
10410;SDS011;5251;52.112;8.606;2022-09-20T08:31:26;5.78;;;2.10;;
10410;SDS011;5251;52.112;8.606;2022-09-20T08:33:56;2.80;;;1.55;;
10410;SDS011;5251;52.112;8.606;2022-09-20T08:36:23;5.95;;;1.70;;
10410;SDS011;5251;52.112;8.606;2022-09-20T08:38:51;3.10;;;1.77;;
10410;SDS011;5251;52.112;8.606;2022-09-20T08:43:59;2.50;;;1.45;;
10410;SDS011;5251;52.112;8.606;2022-09-20T08:46:47;3.03;;;1.50;;
10410;SDS011;5251;52.112;8.606;2022-09-20T08:49:18;4.75;;;1.85;;
10410;SDS011;5251;52.112;8.606;2022-09-20T08:51:50;5.82;;;1.70;;
10410;SDS011;5251;52.112;8.606;2022-09-20T08:54:16;6.22;;;1.95;;
10410;SDS011;5251;52.112;8.606;2022-09-20T08:56:42;3.72;;;1.50;;
10410;SDS011;5251;52.112;8.606;2022-09-20T08:59:13;7.35;;;2.00;;
10410;SDS011;5251;52.112;8.606;2022-09-20T09:01:44;2.35;;;1.42;;
10410;SDS011;5251;52.112;8.606;2022-09-20T09:04:14;4.97;;;1.70;;
10410;SDS011;5251;52.112;8.606;2022-09-20T09:06:42;4.85;;;1.63;;
10410;SDS011;5251;52.112;8.606;2022-09-20T09:09:11;5.15;;;2.17;;
10410;SDS011;5251;52.112;8.606;2022-09-20T09:11:44;7.95;;;1.63;;
10410;SDS011;5251;52.112;8.606;2022-09-20T09:14:12;5.20;;;1.80;;
10410;SDS011;5251;52.112;8.606;2022-09-20T09:17:31;3.97;;;1.50;;
10410;SDS011;5251;52.112;8.606;2022-09-20T09:20:19;5.45;;;1.48;;
10410;SDS011;5251;52.112;8.606;2022-09-20T09:22:46;4.55;;;1.38;;
10410;SDS011;5251;52.112;8.606;2022-09-20T09:25:29;3.88;;;1.70;;
10410;SDS011;5251;52.112;8.606;2022-09-20T09:33:15;3.25;;;1.50;;
10410;SDS011;5251;52.112;8.606;2022-09-20T09:35:45;2.92;;;1.45;;
10410;SDS011;5251;52.112;8.606;2022-09-20T09:38:20;2.83;;;1.38;;
10410;SDS011;5251;52.112;8.606;2022-09-20T09:40:49;6.07;;;1.92;;
10410;SDS011;5251;52.112;8.606;2022-09-20T09:43:21;6.13;;;1.70;;
10410;SDS011;5251;52.112;8.606;2022-09-20T09:45:52;2.72;;;1.20;;
10410;SDS011;5251;52.112;8.606;2022-09-20T09:50:47;1.38;;;1.02;;
10410;SDS011;5251;52.112;8.606;2022-09-20T09:53:22;3.05;;;1.48;;
10410;SDS011;5251;52.112;8.606;2022-09-20T09:58:44;4.90;;;1.25;;
10410;SDS011;5251;52.112;8.606;2022-09-20T10:04:24;1.77;;;0.93;;
10410;SDS011;5251;52.112;8.606;2022-09-20T10:07:00;3.85;;;1.20;;
10410;SDS011;5251;52.112;8.606;2022-09-20T10:09:33;2.75;;;1.05;;
10410;SDS011;5251;52.112;8.606;2022-09-20T10:15:18;2.83;;;0.93;;
10410;SDS011;5251;52.112;8.606;2022-09-20T10:17:50;2.78;;;1.23;;
10410;SDS011;5251;52.112;8.606;2022-09-20T10:20:30;1.88;;;0.70;;
10410;SDS011;5251;52.112;8.606;2022-09-20T10:23:05;0.88;;;0.80;;
10410;SDS011;5251;52.112;8.606;2022-09-20T10:36:14;3.08;;;1.27;;
10410;SDS011;5251;52.112;8.606;2022-09-20T10:38:57;1.63;;;1.05;;
10410;SDS011;5251;52.112;8.606;2022-09-20T10:44:42;3.70;;;1.17;;
10410;SDS011;5251;52.112;8.606;2022-09-20T10:47:22;2.72;;;1.00;;
10410;SDS011;5251;52.112;8.606;2022-09-20T11:03:20;2.22;;;1.10;;
10410;SDS011;5251;52.112;8.606;2022-09-20T11:06:12;2.03;;;0.80;;
10410;SDS011;5251;52.112;8.606;2022-09-20T11:08:44;2.35;;;0.90;;
10410;SDS011;5251;52.112;8.606;2022-09-20T11:11:19;2.72;;;1.20;;
10410;SDS011;5251;52.112;8.606;2022-09-20T11:16:22;3.10;;;1.00;;
10410;SDS011;5251;52.112;8.606;2022-09-20T11:19:45;2.88;;;1.00;;
10410;SDS011;5251;52.112;8.606;2022-09-20T11:27:51;1.75;;;0.85;;
10410;SDS011;5251;52.112;8.606;2022-09-20T11:30:21;2.13;;;0.90;;
10410;SDS011;5251;52.112;8.606;2022-09-20T11:35:47;1.83;;;0.70;;
10410;SDS011;5251;52.112;8.606;2022-09-20T11:38:23;1.52;;;0.60;;
10410;SDS011;5251;52.112;8.606;2022-09-20T11:41:10;4.60;;;1.00;;
10410;SDS011;5251;52.112;8.606;2022-09-20T11:43:49;1.50;;;0.73;;
10410;SDS011;5251;52.112;8.606;2022-09-20T11:46:19;3.10;;;0.70;;
10410;SDS011;5251;52.112;8.606;2022-09-20T11:49:00;2.28;;;0.88;;
10410;SDS011;5251;52.112;8.606;2022-09-20T11:57:13;0.70;;;0.47;;
10410;SDS011;5251;52.112;8.606;2022-09-20T11:59:47;0.98;;;0.60;;
10410;SDS011;5251;52.112;8.606;2022-09-20T12:02:22;1.85;;;0.77;;
10410;SDS011;5251;52.112;8.606;2022-09-20T12:05:04;0.77;;;0.55;;
10410;SDS011;5251;52.112;8.606;2022-09-20T12:10:20;1.20;;;0.80;;
10410;SDS011;5251;52.112;8.606;2022-09-20T12:12:54;1.73;;;0.80;;
10410;SDS011;5251;52.112;8.606;2022-09-20T12:15:25;1.90;;;0.90;;
10410;SDS011;5251;52.112;8.606;2022-09-20T12:33:54;2.80;;;1.10;;
10410;SDS011;5251;52.112;8.606;2022-09-20T12:36:27;2.55;;;0.90;;
10410;SDS011;5251;52.112;8.606;2022-09-20T12:47:01;0.82;;;0.60;;
10410;SDS011;5251;52.112;8.606;2022-09-20T12:49:41;1.55;;;0.98;;
10410;SDS011;5251;52.112;8.606;2022-09-20T13:00:44;1.15;;;0.57;;
10410;SDS011;5251;52.112;8.606;2022-09-20T13:16:46;2.45;;;1.10;;
10410;SDS011;5251;52.112;8.606;2022-09-20T13:19:49;1.58;;;0.70;;
10410;SDS011;5251;52.112;8.606;2022-09-20T13:22:26;1.58;;;0.70;;
10410;SDS011;5251;52.112;8.606;2022-09-20T13:24:58;2.47;;;0.70;;
10410;SDS011;5251;52.112;8.606;2022-09-20T13:27:31;1.58;;;0.70;;
10410;SDS011;5251;52.112;8.606;2022-09-20T13:32:47;2.03;;;0.90;;
10410;SDS011;5251;52.112;8.606;2022-09-20T13:35:15;1.05;;;0.70;;
10410;SDS011;5251;52.112;8.606;2022-09-20T13:40:32;4.32;;;0.90;;
10410;SDS011;5251;52.112;8.606;2022-09-20T13:43:06;1.58;;;0.80;;
10410;SDS011;5251;52.112;8.606;2022-09-20T13:45:52;2.78;;;1.30;;
10410;SDS011;5251;52.112;8.606;2022-09-20T13:48:27;2.63;;;1.10;;
10410;SDS011;5251;52.112;8.606;2022-09-20T13:50:55;2.28;;;0.65;;
10410;SDS011;5251;52.112;8.606;2022-09-20T13:53:22;2.58;;;0.95;;
10410;SDS011;5251;52.112;8.606;2022-09-20T13:55:49;1.00;;;0.60;;
10410;SDS011;5251;52.112;8.606;2022-09-20T14:01:00;1.58;;;0.75;;
10410;SDS011;5251;52.112;8.606;2022-09-20T14:03:29;2.33;;;0.82;;
10410;SDS011;5251;52.112;8.606;2022-09-20T14:05:58;2.40;;;0.82;;
10410;SDS011;5251;52.112;8.606;2022-09-20T14:08:37;1.83;;;0.75;;
10410;SDS011;5251;52.112;8.606;2022-09-20T14:13:34;1.75;;;0.95;;
10410;SDS011;5251;52.112;8.606;2022-09-20T14:16:05;0.50;;;0.50;;
10410;SDS011;5251;52.112;8.606;2022-09-20T14:18:32;2.17;;;0.80;;
10410;SDS011;5251;52.112;8.606;2022-09-20T14:21:00;1.45;;;0.52;;
10410;SDS011;5251;52.112;8.606;2022-09-20T14:23:27;1.00;;;0.50;;
10410;SDS011;5251;52.112;8.606;2022-09-20T14:28:31;0.40;;;0.38;;
10410;SDS011;5251;52.112;8.606;2022-09-20T14:31:30;1.95;;;0.52;;
10410;SDS011;5251;52.112;8.606;2022-09-20T14:33:52;0.45;;;0.30;;
10410;SDS011;5251;52.112;8.606;2022-09-20T14:36:21;1.65;;;0.43;;
10410;SDS011;5251;52.112;8.606;2022-09-20T14:38:49;0.98;;;0.50;;
10410;SDS011;5251;52.112;8.606;2022-09-20T14:41:25;2.00;;;0.60;;
10410;SDS011;5251;52.112;8.606;2022-09-20T14:43:57;1.92;;;0.50;;
10410;SDS011;5251;52.112;8.606;2022-09-20T14:46:28;1.40;;;0.52;;
10410;SDS011;5251;52.112;8.606;2022-09-20T14:49:20;2.17;;;0.60;;
10410;SDS011;5251;52.112;8.606;2022-09-20T14:54:59;1.65;;;0.70;;
10410;SDS011;5251;52.112;8.606;2022-09-20T14:57:52;1.20;;;0.70;;
10410;SDS011;5251;52.112;8.606;2022-09-20T15:00:20;2.20;;;0.80;;
10410;SDS011;5251;52.112;8.606;2022-09-20T15:02:46;1.63;;;0.65;;
10410;SDS011;5251;52.112;8.606;2022-09-20T15:05:30;1.40;;;0.70;;
10410;SDS011;5251;52.112;8.606;2022-09-20T15:07:56;4.93;;;0.95;;
10410;SDS011;5251;52.112;8.606;2022-09-20T15:10:22;1.33;;;0.60;;
10410;SDS011;5251;52.112;8.606;2022-09-20T15:12:49;3.42;;;0.80;;
10410;SDS011;5251;52.112;8.606;2022-09-20T15:15:15;1.02;;;0.70;;
10410;SDS011;5251;52.112;8.606;2022-09-20T15:17:43;2.75;;;0.82;;
10410;SDS011;5251;52.112;8.606;2022-09-20T15:20:15;2.28;;;1.05;;
10410;SDS011;5251;52.112;8.606;2022-09-20T15:22:45;1.17;;;0.90;;
10410;SDS011;5251;52.112;8.606;2022-09-20T15:25:13;1.50;;;0.77;;
10410;SDS011;5251;52.112;8.606;2022-09-20T15:27:41;2.15;;;0.98;;
10410;SDS011;5251;52.112;8.606;2022-09-20T15:30:09;3.35;;;1.25;;
10410;SDS011;5251;52.112;8.606;2022-09-20T15:32:35;2.13;;;0.70;;
10410;SDS011;5251;52.112;8.606;2022-09-20T15:35:01;1.38;;;0.60;;
10410;SDS011;5251;52.112;8.606;2022-09-20T15:37:27;1.65;;;0.73;;
10410;SDS011;5251;52.112;8.606;2022-09-20T15:39:52;1.90;;;1.10;;
10410;SDS011;5251;52.112;8.606;2022-09-20T15:42:18;1.05;;;0.65;;
10410;SDS011;5251;52.112;8.606;2022-09-20T15:44:47;2.20;;;0.80;;
10410;SDS011;5251;52.112;8.606;2022-09-20T15:47:15;1.48;;;0.90;;
10410;SDS011;5251;52.112;8.606;2022-09-20T15:49:41;2.45;;;0.85;;
10410;SDS011;5251;52.112;8.606;2022-09-20T15:52:11;2.47;;;0.88;;
10410;SDS011;5251;52.112;8.606;2022-09-20T15:54:37;2.10;;;0.95;;
10410;SDS011;5251;52.112;8.606;2022-09-20T15:57:03;0.98;;;0.70;;
10410;SDS011;5251;52.112;8.606;2022-09-20T15:59:29;1.95;;;1.30;;
10410;SDS011;5251;52.112;8.606;2022-09-20T16:01:57;1.73;;;1.02;;
10410;SDS011;5251;52.112;8.606;2022-09-20T16:04:26;3.22;;;1.08;;
10410;SDS011;5251;52.112;8.606;2022-09-20T16:06:52;3.28;;;1.42;;
10410;SDS011;5251;52.112;8.606;2022-09-20T16:09:18;3.47;;;1.08;;
10410;SDS011;5251;52.112;8.606;2022-09-20T16:11:47;1.05;;;0.95;;
10410;SDS011;5251;52.112;8.606;2022-09-20T16:14:13;2.20;;;1.30;;
10410;SDS011;5251;52.112;8.606;2022-09-20T16:16:39;2.38;;;1.27;;
10410;SDS011;5251;52.112;8.606;2022-09-20T16:19:04;2.22;;;1.27;;
10410;SDS011;5251;52.112;8.606;2022-09-20T16:21:45;3.80;;;1.50;;
10410;SDS011;5251;52.112;8.606;2022-09-20T16:24:18;2.75;;;1.10;;
10410;SDS011;5251;52.112;8.606;2022-09-20T16:26:48;3.05;;;0.90;;
10410;SDS011;5251;52.112;8.606;2022-09-20T16:29:13;1.80;;;0.98;;
10410;SDS011;5251;52.112;8.606;2022-09-20T16:36:57;1.90;;;0.82;;
10410;SDS011;5251;52.112;8.606;2022-09-20T16:39:30;2.40;;;1.15;;
10410;SDS011;5251;52.112;8.606;2022-09-20T16:42:01;2.58;;;1.20;;
10410;SDS011;5251;52.112;8.606;2022-09-20T16:44:31;2.03;;;1.02;;
10410;SDS011;5251;52.112;8.606;2022-09-20T16:47:02;2.22;;;1.27;;
10410;SDS011;5251;52.112;8.606;2022-09-20T16:49:31;3.08;;;1.60;;
10410;SDS011;5251;52.112;8.606;2022-09-20T16:51:57;4.50;;;2.50;;
10410;SDS011;5251;52.112;8.606;2022-09-20T16:54:22;3.65;;;1.75;;
10410;SDS011;5251;52.112;8.606;2022-09-20T16:56:48;3.67;;;1.73;;
10410;SDS011;5251;52.112;8.606;2022-09-20T16:59:15;2.55;;;1.20;;
10410;SDS011;5251;52.112;8.606;2022-09-20T17:01:43;6.22;;;2.22;;
10410;SDS011;5251;52.112;8.606;2022-09-20T17:04:09;11.63;;;3.20;;
10410;SDS011;5251;52.112;8.606;2022-09-20T17:06:37;13.55;;;4.25;;
10410;SDS011;5251;52.112;8.606;2022-09-20T17:09:04;4.10;;;1.88;;
10410;SDS011;5251;52.112;8.606;2022-09-20T17:11:32;4.15;;;1.75;;
10410;SDS011;5251;52.112;8.606;2022-09-20T17:13:59;3.08;;;1.42;;
10410;SDS011;5251;52.112;8.606;2022-09-20T17:16:29;3.63;;;1.30;;
10410;SDS011;5251;52.112;8.606;2022-09-20T17:19:31;1.70;;;1.30;;
10410;SDS011;5251;52.112;8.606;2022-09-20T17:21:50;4.65;;;2.05;;
10410;SDS011;5251;52.112;8.606;2022-09-20T17:24:20;7.07;;;3.22;;
10410;SDS011;5251;52.112;8.606;2022-09-20T17:26:46;8.32;;;3.33;;
10410;SDS011;5251;52.112;8.606;2022-09-20T17:29:13;11.13;;;4.40;;
10410;SDS011;5251;52.112;8.606;2022-09-20T17:31:42;13.02;;;5.13;;
10410;SDS011;5251;52.112;8.606;2022-09-20T17:34:14;14.32;;;5.25;;
10410;SDS011;5251;52.112;8.606;2022-09-20T17:36:41;12.10;;;4.30;;
10410;SDS011;5251;52.112;8.606;2022-09-20T17:39:10;7.03;;;2.95;;
10410;SDS011;5251;52.112;8.606;2022-09-20T17:41:37;5.03;;;1.27;;
10410;SDS011;5251;52.112;8.606;2022-09-20T17:44:04;4.18;;;1.40;;
10410;SDS011;5251;52.112;8.606;2022-09-20T17:46:34;1.98;;;0.90;;
10410;SDS011;5251;52.112;8.606;2022-09-20T17:49:03;2.55;;;1.15;;
10410;SDS011;5251;52.112;8.606;2022-09-20T17:52:03;1.02;;;0.70;;
10410;SDS011;5251;52.112;8.606;2022-09-20T17:54:22;2.75;;;1.23;;
10410;SDS011;5251;52.112;8.606;2022-09-20T17:56:49;2.45;;;0.93;;
10410;SDS011;5251;52.112;8.606;2022-09-20T17:59:16;1.05;;;0.80;;
10410;SDS011;5251;52.112;8.606;2022-09-20T18:01:43;3.05;;;0.95;;
10410;SDS011;5251;52.112;8.606;2022-09-20T18:04:11;1.13;;;0.73;;
10410;SDS011;5251;52.112;8.606;2022-09-20T18:06:38;4.05;;;0.90;;
10410;SDS011;5251;52.112;8.606;2022-09-20T18:09:15;1.38;;;0.80;;
10410;SDS011;5251;52.112;8.606;2022-09-20T18:11:44;2.22;;;0.95;;
10410;SDS011;5251;52.112;8.606;2022-09-20T18:14:15;2.47;;;1.30;;
10410;SDS011;5251;52.112;8.606;2022-09-20T18:16:42;3.55;;;1.80;;
10410;SDS011;5251;52.112;8.606;2022-09-20T18:19:08;2.83;;;1.55;;
10410;SDS011;5251;52.112;8.606;2022-09-20T18:21:34;2.65;;;1.70;;
10410;SDS011;5251;52.112;8.606;2022-09-20T18:24:03;3.90;;;2.13;;
10410;SDS011;5251;52.112;8.606;2022-09-20T18:26:30;2.60;;;1.83;;
10410;SDS011;5251;52.112;8.606;2022-09-20T18:29:03;2.60;;;1.27;;
10410;SDS011;5251;52.112;8.606;2022-09-20T18:31:34;3.45;;;1.70;;
10410;SDS011;5251;52.112;8.606;2022-09-20T18:34:08;4.28;;;2.10;;
10410;SDS011;5251;52.112;8.606;2022-09-20T18:36:36;2.20;;;1.80;;
10410;SDS011;5251;52.112;8.606;2022-09-20T18:39:06;2.25;;;1.40;;
10410;SDS011;5251;52.112;8.606;2022-09-20T18:41:32;2.08;;;1.30;;
10410;SDS011;5251;52.112;8.606;2022-09-20T18:44:01;3.83;;;1.30;;
10410;SDS011;5251;52.112;8.606;2022-09-20T18:46:28;1.42;;;1.10;;
10410;SDS011;5251;52.112;8.606;2022-09-20T18:48:55;2.35;;;1.50;;
10410;SDS011;5251;52.112;8.606;2022-09-20T18:51:24;1.50;;;1.23;;
10410;SDS011;5251;52.112;8.606;2022-09-20T18:53:53;1.88;;;1.20;;
10410;SDS011;5251;52.112;8.606;2022-09-20T18:56:32;2.15;;;1.30;;
10410;SDS011;5251;52.112;8.606;2022-09-20T18:59:03;1.63;;;1.23;;
10410;SDS011;5251;52.112;8.606;2022-09-20T19:01:36;2.30;;;1.38;;
10410;SDS011;5251;52.112;8.606;2022-09-20T19:04:23;3.05;;;1.55;;
10410;SDS011;5251;52.112;8.606;2022-09-20T19:07:21;1.83;;;1.20;;
10410;SDS011;5251;52.112;8.606;2022-09-20T19:13:04;1.75;;;1.40;;
10410;SDS011;5251;52.112;8.606;2022-09-20T19:26:34;2.65;;;1.25;;
10410;SDS011;5251;52.112;8.606;2022-09-20T19:29:02;3.47;;;1.30;;
10410;SDS011;5251;52.112;8.606;2022-09-20T19:31:35;3.30;;;1.58;;
10410;SDS011;5251;52.112;8.606;2022-09-20T19:34:02;2.55;;;1.50;;
10410;SDS011;5251;52.112;8.606;2022-09-20T19:48:42;1.63;;;1.23;;
10410;SDS011;5251;52.112;8.606;2022-09-20T19:51:11;1.40;;;0.90;;
10410;SDS011;5251;52.112;8.606;2022-09-20T19:53:38;3.63;;;1.63;;
10410;SDS011;5251;52.112;8.606;2022-09-20T19:58:52;1.88;;;1.20;;
10410;SDS011;5251;52.112;8.606;2022-09-20T20:01:20;1.55;;;1.38;;
10410;SDS011;5251;52.112;8.606;2022-09-20T20:03:53;1.85;;;1.30;;
10410;SDS011;5251;52.112;8.606;2022-09-20T20:08:56;2.00;;;1.42;;
10410;SDS011;5251;52.112;8.606;2022-09-20T20:11:44;2.33;;;1.50;;
10410;SDS011;5251;52.112;8.606;2022-09-20T20:25:50;5.35;;;2.80;;
10410;SDS011;5251;52.112;8.606;2022-09-20T20:28:19;5.05;;;2.95;;
10410;SDS011;5251;52.112;8.606;2022-09-20T20:30:45;6.20;;;3.10;;
10410;SDS011;5251;52.112;8.606;2022-09-20T20:33:14;7.93;;;3.70;;
10410;SDS011;5251;52.112;8.606;2022-09-20T20:35:40;11.20;;;4.20;;
10410;SDS011;5251;52.112;8.606;2022-09-20T20:38:05;12.00;;;4.72;;
10410;SDS011;5251;52.112;8.606;2022-09-20T20:40:36;17.08;;;5.07;;
10410;SDS011;5251;52.112;8.606;2022-09-20T20:43:02;16.55;;;6.00;;
10410;SDS011;5251;52.112;8.606;2022-09-20T20:45:30;13.13;;;5.30;;
10410;SDS011;5251;52.112;8.606;2022-09-20T20:47:56;5.88;;;2.92;;
10410;SDS011;5251;52.112;8.606;2022-09-20T20:50:23;4.38;;;2.50;;
10410;SDS011;5251;52.112;8.606;2022-09-20T20:52:50;5.88;;;2.22;;
10410;SDS011;5251;52.112;8.606;2022-09-20T20:55:17;3.78;;;1.80;;
10410;SDS011;5251;52.112;8.606;2022-09-20T20:57:43;2.70;;;1.70;;
10410;SDS011;5251;52.112;8.606;2022-09-20T21:00:09;2.35;;;1.52;;
10410;SDS011;5251;52.112;8.606;2022-09-20T21:02:35;2.55;;;1.60;;
10410;SDS011;5251;52.112;8.606;2022-09-20T21:05:00;2.72;;;1.50;;
10410;SDS011;5251;52.112;8.606;2022-09-20T21:07:26;3.03;;;1.52;;
10410;SDS011;5251;52.112;8.606;2022-09-20T21:09:52;2.67;;;1.60;;
10410;SDS011;5251;52.112;8.606;2022-09-20T21:12:18;2.22;;;1.55;;
10410;SDS011;5251;52.112;8.606;2022-09-20T21:14:45;2.35;;;1.80;;
10410;SDS011;5251;52.112;8.606;2022-09-20T21:17:10;2.88;;;1.98;;
10410;SDS011;5251;52.112;8.606;2022-09-20T21:19:36;2.50;;;1.85;;
10410;SDS011;5251;52.112;8.606;2022-09-20T21:22:01;5.30;;;2.60;;
10410;SDS011;5251;52.112;8.606;2022-09-20T21:24:27;4.97;;;2.40;;
10410;SDS011;5251;52.112;8.606;2022-09-20T21:26:52;3.88;;;2.28;;
10410;SDS011;5251;52.112;8.606;2022-09-20T21:29:18;5.07;;;2.08;;
10410;SDS011;5251;52.112;8.606;2022-09-20T21:31:44;2.47;;;1.73;;
10410;SDS011;5251;52.112;8.606;2022-09-20T21:34:11;4.20;;;1.75;;
10410;SDS011;5251;52.112;8.606;2022-09-20T21:36:39;2.72;;;1.83;;
10410;SDS011;5251;52.112;8.606;2022-09-20T21:39:05;5.03;;;1.75;;